Time;durP1;ratioP1;P1;durP2;ratioP2;P2;SDS_P1;SDS_P2;PMS_P1;PMS_P2;Temp;Humidity;BMP_temperature;BMP_pressure;BME280_temperature;BME280_humidity;BME280_pressure;Samples;Min_cycle;Max_cycle;Signal;HPM_P1;HPM_P2
2023/01/20 00:01:47;;;;;;;13.27;3.40;;;-0.60;99.90;;;-0.80;100.00;99276.81;4951991;28;20316;-75
2023/01/20 00:04:17;;;;;;;10.00;2.22;;;-0.60;99.90;;;-0.85;100.00;99276.63;4956180;28;20236;-76
2023/01/20 00:06:45;;;;;;;16.08;3.40;;;-0.60;99.90;;;-0.80;100.00;99280.28;4950746;28;20242;-75
2023/01/20 00:09:17;;;;;;;15.32;3.25;;;-0.60;99.90;;;-0.82;100.00;99289.72;4948847;28;20289;-75
2023/01/20 00:11:45;;;;;;;8.73;2.00;;;-0.60;99.90;;;-0.75;100.00;99291.72;4951264;28;20241;-75
2023/01/20 00:14:13;;;;;;;10.30;2.30;;;-0.60;99.90;;;-0.74;100.00;99298.66;4950756;28;20277;-76
2023/01/20 00:16:40;;;;;;;13.00;2.75;;;-0.50;99.90;;;-0.81;100.00;99304.47;4948218;28;20269;-75
2023/01/20 00:19:08;;;;;;;15.15;3.33;;;-0.60;99.90;;;-0.88;100.00;99296.41;4953536;28;20257;-75
2023/01/20 00:21:35;;;;;;;12.30;2.67;;;-0.70;99.90;;;-0.88;100.00;99304.19;4945296;28;20234;-75
2023/01/20 00:24:02;;;;;;;14.35;3.15;;;-0.70;99.90;;;-0.88;100.00;99310.25;4950664;28;20257;-75
2023/01/20 00:26:29;;;;;;;10.38;2.30;;;-0.70;99.90;;;-0.85;100.00;99314.69;4955731;28;20233;-75
2023/01/20 00:28:56;;;;;;;13.25;3.10;;;-0.70;99.90;;;-0.88;100.00;99310.25;4947515;28;20264;-75
2023/01/20 00:31:27;;;;;;;11.93;2.90;;;-0.70;99.90;;;-1.05;100.00;99307.06;4957973;28;20236;-76
2023/01/20 00:33:58;;;;;;;12.15;2.83;;;-0.80;99.90;;;-1.33;100.00;99299.03;4953612;28;20351;-75
2023/01/20 00:36:30;;;;;;;15.10;3.17;;;-1.10;99.90;;;-1.19;100.00;99320.34;4944619;28;20328;-75
2023/01/20 00:38:58;;;;;;;13.65;2.92;;;-1.10;99.90;;;-1.23;100.00;99327.13;4948455;28;20230;-75
2023/01/20 00:41:25;;;;;;;11.60;2.50;;;-1.00;99.90;;;-1.40;100.00;99325.56;4949784;28;20265;-75
2023/01/20 00:43:52;;;;;;;15.05;3.22;;;-1.20;99.90;;;-1.37;100.00;99336.94;4947067;28;20246;-75
2023/01/20 00:46:21;;;;;;;11.27;2.40;;;-1.20;99.90;;;-1.34;100.00;99344.84;4954214;28;20295;-75
2023/01/20 00:48:48;;;;;;;12.40;2.65;;;-1.20;99.90;;;-1.33;100.00;99351.78;4947146;28;20289;-75
2023/01/20 00:51:15;;;;;;;12.52;3.00;;;-1.20;99.90;;;-1.28;100.00;99356.31;4949114;28;20738;-75
2023/01/20 00:53:43;;;;;;;10.55;2.33;;;-1.20;99.90;;;-1.30;100.00;99358.84;4949663;28;20309;-75
2023/01/20 00:56:10;;;;;;;18.95;3.80;;;-0.60;99.90;;;-1.44;100.00;99358.28;4937345;28;20265;-75
2023/01/20 00:58:36;;;;;;;13.05;2.75;;;-1.20;99.90;;;-1.48;100.00;99368.47;4968546;28;20260;-75
2023/01/20 01:01:04;;;;;;;13.50;3.05;;;-1.30;99.90;;;-1.56;100.00;99368.16;4955051;28;20229;-76
2023/01/20 01:03:31;;;;;;;10.93;2.35;;;-1.30;99.90;;;-1.64;100.00;99372.16;4960317;28;20232;-75
2023/01/20 01:06:13;;;;;;;25.23;5.10;;;-1.40;99.90;;;-1.62;100.00;99374.00;4944033;28;20234;-75
2023/01/20 01:08:41;;;;;;;18.15;3.75;;;-1.50;99.90;;;-1.48;100.00;99392.69;4940114;28;20231;-75
2023/01/20 01:11:11;;;;;;;12.95;2.75;;;-1.40;99.90;;;-1.43;100.00;99403.25;4949148;28;20309;-75
2023/01/20 01:13:38;;;;;;;14.73;3.05;;;-1.30;99.90;;;-1.46;100.00;99396.22;4959689;28;20258;-75
2023/01/20 01:16:13;;;;;;;20.85;4.32;;;-1.30;99.90;;;-1.52;100.00;99402.88;4960369;28;20297;-75
2023/01/20 01:18:42;;;;;;;9.57;2.10;;;-1.30;99.90;;;-1.62;100.00;99399.91;4950244;28;20308;-75
2023/01/20 01:21:13;;;;;;;16.17;3.47;;;-1.40;99.90;;;-1.64;100.00;99405.84;4955858;28;20237;-75
2023/01/20 01:23:40;;;;;;;15.70;3.22;;;-1.40;99.90;;;-1.58;100.00;99407.81;4952994;28;20274;-76
2023/01/20 01:26:09;;;;;;;24.60;4.63;;;-1.40;99.90;;;-1.47;100.00;99420.38;4962083;28;20336;-75
2023/01/20 01:28:36;;;;;;;23.65;4.80;;;-1.10;99.90;;;-1.46;100.00;99424.75;4957008;28;20321;-75
2023/01/20 01:31:05;;;;;;;10.48;2.53;;;-1.30;99.90;;;-1.53;100.00;99421.84;4949302;28;20237;-75
2023/01/20 01:33:34;;;;;;;10.63;2.33;;;-1.30;99.90;;;-1.56;100.00;99426.91;4945030;28;20230;-75
2023/01/20 01:36:03;;;;;;;23.95;5.00;;;-1.40;99.90;;;-1.42;100.00;99444.78;4946897;28;20242;-76
2023/01/20 01:38:30;;;;;;;12.70;2.70;;;-1.30;99.90;;;-1.36;100.00;99449.34;4950544;28;20237;-75
2023/01/20 01:40:57;;;;;;;22.33;4.75;;;-1.20;99.90;;;-1.32;100.00;99462.50;4941670;28;20250;-76
2023/01/20 01:43:31;;;;;;;14.88;3.20;;;-1.10;99.90;;;-1.29;100.00;99466.94;4951536;28;20253;-75
2023/01/20 01:45:58;;;;;;;25.42;5.32;;;-1.10;99.90;;;-1.34;100.00;99473.63;4952799;28;20292;-75
2023/01/20 01:48:34;;;;;;;13.38;2.85;;;-1.10;99.90;;;-1.35;100.00;99464.06;4951645;28;20232;-75
2023/01/20 01:51:11;;;;;;;14.38;3.30;;;-1.20;99.90;;;-1.42;100.00;99459.47;4949265;28;20315;-78
2023/01/20 01:53:47;;;;;;;14.43;2.97;;;-0.50;99.90;;;-1.49;100.00;99460.91;4956053;28;20233;-75
2023/01/20 01:56:14;;;;;;;16.02;3.33;;;-1.30;99.90;;;-1.52;100.00;99457.31;4951379;28;20311;-76
2023/01/20 01:58:47;;;;;;;17.08;3.50;;;-1.40;99.90;;;-1.48;100.00;99457.50;4949438;28;20284;-75
2023/01/20 02:01:14;;;;;;;12.75;2.75;;;-1.30;99.90;;;-1.48;100.00;99457.50;4966729;28;20240;-75
2023/01/20 02:03:55;;;;;;;129.75;23.60;;;-1.30;99.90;;;-1.56;100.00;99458.00;4943462;28;20233;-75
2023/01/20 02:06:28;;;;;;;19.40;4.13;;;-1.40;99.90;;;-1.56;100.00;99458.00;4924704;28;20257;-75
2023/01/20 02:08:56;;;;;;;12.57;2.90;;;-1.40;99.90;;;-1.61;100.00;99463.91;4937958;28;20773;-75
2023/01/20 02:11:23;;;;;;;9.65;2.15;;;-1.40;99.90;;;-1.68;100.00;99460.97;4931240;29;20237;-74
2023/01/20 02:13:50;;;;;;;11.73;2.60;;;-0.70;99.90;;;-1.51;100.00;99469.47;4934632;28;20324;-76
2023/01/20 02:16:39;;;;;;;12.90;2.75;;;-0.80;99.90;;;-1.56;100.00;99471.84;4944296;28;20246;-75
2023/01/20 02:19:57;;;;;;;11.82;2.70;;;-1.40;99.90;;;-1.64;100.00;99479.31;4947779;28;20265;-76
2023/01/20 02:22:53;;;;;;;10.32;2.35;;;-1.40;99.90;;;-1.79;100.00;99473.50;4940570;28;20656;-75
2023/01/20 02:25:45;;;;;;;15.45;3.38;;;-1.50;99.90;;;-1.77;100.00;99477.03;4944203;28;20254;-76
2023/01/20 02:28:57;;;;;;;11.68;2.60;;;-1.60;99.90;;;-1.93;100.00;99479.78;4948102;28;20280;-75
2023/01/20 02:32:01;;;;;;;12.07;2.70;;;-1.60;99.90;;;-1.99;100.00;99483.00;4939776;28;20314;-75
2023/01/20 02:34:54;;;;;;;13.25;2.85;;;-1.70;99.90;;;-2.09;100.00;99482.53;4943631;28;20316;-75
2023/01/20 02:37:27;;;;;;;13.98;3.05;;;-1.80;99.90;;;-2.06;100.00;99485.25;4943127;28;20257;-75
2023/01/20 02:40:12;;;;;;;18.00;3.95;;;-1.80;99.90;;;-2.08;100.00;99492.09;4942449;28;20230;-75
2023/01/20 02:42:56;;;;;;;19.20;3.90;;;-1.90;99.90;;;-2.26;100.00;99486.97;4950186;28;20229;-75
2023/01/20 02:45:41;;;;;;;14.48;3.08;;;-2.00;99.90;;;-2.19;100.00;99495.91;4944859;28;20285;-74
2023/01/20 02:48:28;;;;;;;12.00;2.65;;;-2.00;99.90;;;-2.21;100.00;99505.31;4949235;28;20268;-75
2023/01/20 02:51:06;;;;;;;17.85;3.72;;;-2.10;99.90;;;-2.19;100.00;99514.03;4940913;28;20266;-75
2023/01/20 02:53:44;;;;;;;12.63;2.90;;;-2.00;99.90;;;-2.20;100.00;99523.50;4953778;28;20233;-75
2023/01/20 02:56:12;;;;;;;14.07;3.05;;;-2.10;99.90;;;-2.19;100.00;99527.88;4951825;28;20254;-75
2023/01/20 02:58:51;;;;;;;10.50;2.30;;;-2.00;99.90;;;-2.27;100.00;99524.06;4951090;28;20241;-75
2023/01/20 03:01:38;;;;;;;11.05;2.53;;;-2.10;99.90;;;-2.23;100.00;99533.72;4952676;28;20256;-76
2023/01/20 03:04:09;;;;;;;18.52;3.97;;;-2.10;99.90;;;-2.13;100.00;99543.69;4956577;28;20226;-76
2023/01/20 03:06:42;;;;;;;17.10;3.55;;;-2.00;99.90;;;-2.21;100.00;99546.75;4938130;28;20241;-75
2023/01/20 03:09:16;;;;;;;11.68;2.60;;;-2.00;99.90;;;-2.10;100.00;99553.28;4963193;28;20698;-75
2023/01/20 03:11:59;;;;;;;11.55;2.50;;;-1.90;99.90;;;-2.31;100.00;99554.09;4945572;28;20598;-74
2023/01/20 03:14:27;;;;;;;15.88;3.40;;;-2.00;99.90;;;-2.29;100.00;99554.16;4954080;28;20268;-75
2023/01/20 03:16:54;;;;;;;12.52;2.90;;;-2.10;99.90;;;-2.17;100.00;99567.69;4946054;28;20291;-76
2023/01/20 03:19:21;;;;;;;11.63;2.55;;;-2.00;99.90;;;-2.13;100.00;99574.75;4957217;28;20582;-75
2023/01/20 03:21:48;;;;;;;17.52;3.65;;;-1.90;99.90;;;-2.10;100.00;99581.78;4970936;28;20407;-76
2023/01/20 03:24:15;;;;;;;12.15;2.65;;;-1.90;99.90;;;-2.12;100.00;99581.72;4951313;28;20245;-75
2023/01/20 03:26:43;;;;;;;14.88;3.47;;;-1.90;99.90;;;-2.17;100.00;99585.81;4948907;28;20241;-76
2023/01/20 03:29:11;;;;;;;11.90;2.60;;;-1.90;99.90;;;-2.01;100.00;99592.56;4947028;28;20301;-77
2023/01/20 03:32:04;;;;;;;13.32;2.80;;;-1.90;99.90;;;-2.03;100.00;99589.91;4949581;28;20238;-75
2023/01/20 03:34:34;;;;;;;12.82;2.72;;;-1.80;99.90;;;-1.99;100.00;99593.53;4941220;28;20293;-76
2023/01/20 03:37:03;;;;;;;18.55;3.95;;;-1.80;99.90;;;-2.09;100.00;99589.63;4935214;28;20242;-75
2023/01/20 03:39:31;;;;;;;11.13;2.38;;;-1.80;99.90;;;-2.07;100.00;99592.28;4949463;28;20697;-74
2023/01/20 03:42:29;;;;;;;16.17;3.47;;;-1.80;99.90;;;-2.02;100.00;99596.84;4939789;28;20233;-75
2023/01/20 03:45:50;;;;;;;17.48;3.78;;;-1.80;99.90;;;-2.07;100.00;99597.47;4942623;28;20279;-74
2023/01/20 03:48:45;;;;;;;9.35;2.13;;;-1.80;99.90;;;-2.20;100.00;99600.31;4946501;28;20230;-74
2023/01/20 03:51:32;;;;;;;13.13;2.78;;;-2.00;99.90;;;-2.33;100.00;99596.28;4951771;28;20739;-75
2023/01/20 03:54:13;;;;;;;11.48;2.63;;;-2.10;99.90;;;-2.30;100.00;99589.53;4945984;28;20676;-75
2023/01/20 03:57:03;;;;;;;12.68;2.75;;;-2.10;99.90;;;-2.26;100.00;99590.56;4946262;28;20241;-75
2023/01/20 03:59:34;;;;;;;17.40;3.65;;;-2.10;99.90;;;-2.26;100.00;99591.44;4957741;28;20239;-75
2023/01/20 04:02:04;;;;;;;15.18;3.25;;;-2.00;99.90;;;-2.31;100.00;99582.59;4950715;28;20229;-76
2023/01/20 04:04:37;;;;;;;12.13;2.67;;;-2.10;99.90;;;-2.31;100.00;99592.94;4936145;28;20241;-76
2023/01/20 04:07:13;;;;;;;14.10;3.13;;;-2.10;99.90;;;-2.31;100.00;99587.75;4955222;28;20312;-75
2023/01/20 04:09:47;;;;;;;20.55;4.20;;;-2.10;99.90;;;-2.27;100.00;99596.56;4942011;28;20229;-76
2023/01/20 04:12:14;;;;;;;13.02;2.80;;;-2.10;99.90;;;-2.19;100.00;99586.56;4941983;28;20258;-76
2023/01/20 04:14:41;;;;;;;13.07;2.83;;;-2.00;99.90;;;-2.23;100.00;99588.13;4951894;28;20280;-75
2023/01/20 04:17:08;;;;;;;16.23;3.45;;;-2.00;99.90;;;-2.30;100.00;99584.34;4941403;29;20287;-77
2023/01/20 04:19:35;;;;;;;15.73;3.25;;;-2.10;99.90;;;-2.29;100.00;99580.06;4948173;28;20254;-76
2023/01/20 04:22:15;;;;;;;12.95;2.97;;;-2.10;99.90;;;-2.37;100.00;99578.81;4951060;28;20264;-76
2023/01/20 04:24:53;;;;;;;11.93;2.63;;;-2.10;99.90;;;-2.39;100.00;99583.03;4951160;28;20249;-77
2023/01/20 04:27:20;;;;;;;13.27;2.78;;;-2.20;99.90;;;-2.58;100.00;99569.25;4949238;28;20269;-75
2023/01/20 04:29:47;;;;;;;15.15;3.08;;;-2.30;99.90;;;-2.57;100.00;99572.72;4960285;28;20257;-75
2023/01/20 04:32:14;;;;;;;12.65;2.63;;;-2.40;99.90;;;-2.68;100.00;99568.72;4951255;28;20271;-75
2023/01/20 04:34:41;;;;;;;17.25;3.58;;;-2.40;99.90;;;-2.59;100.00;99576.94;4950761;28;20238;-76
2023/01/20 04:37:08;;;;;;;17.25;3.55;;;-2.40;99.90;;;-2.60;100.00;99573.47;4943609;28;20600;-75
2023/01/20 04:39:35;;;;;;;14.75;2.97;;;-2.40;99.90;;;-2.60;100.00;99573.47;4936809;28;20230;-76
2023/01/20 04:42:03;;;;;;;16.90;3.60;;;-2.40;99.90;;;-2.62;100.00;99574.19;4953139;28;20297;-75
2023/01/20 04:44:30;;;;;;;14.02;2.95;;;-2.00;99.90;;;-2.58;100.00;99587.38;4953101;28;20233;-76
2023/01/20 04:46:57;;;;;;;14.95;3.20;;;-1.80;99.90;;;-2.49;100.00;99591.19;4945392;28;20249;-76
2023/01/20 04:49:24;;;;;;;14.52;2.97;;;-2.30;99.90;;;-2.35;100.00;99598.78;4939698;29;20765;-76
2023/01/20 04:51:51;;;;;;;15.90;3.30;;;-2.20;99.90;;;-2.55;100.00;99602.16;4939658;28;20257;-76
2023/01/20 04:54:19;;;;;;;11.00;2.30;;;-2.30;99.90;;;-2.61;100.00;99588.88;4953375;28;20258;-76
2023/01/20 04:56:49;;;;;;;12.25;2.65;;;-2.40;99.90;;;-2.66;100.00;99592.97;4959759;28;20225;-75
2023/01/20 04:59:16;;;;;;;12.60;2.67;;;-2.40;99.90;;;-2.49;100.00;99607.63;4945557;28;20234;-76
2023/01/20 05:01:43;;;;;;;14.00;2.95;;;-2.30;99.90;;;-2.68;100.00;99594.59;4954414;28;20229;-76
2023/01/20 05:04:10;;;;;;;14.32;3.03;;;-2.40;99.90;;;-2.69;100.00;99598.88;4947975;28;20237;-77
2023/01/20 05:06:41;;;;;;;23.10;4.57;;;-2.40;99.90;;;-2.70;100.00;99598.81;4944364;28;20301;-75
2023/01/20 05:09:15;;;;;;;23.80;4.82;;;-2.50;99.90;;;-2.62;100.00;99600.94;4942466;28;20260;-76
2023/01/20 05:11:42;;;;;;;14.65;3.08;;;-2.40;99.90;;;-2.72;100.00;99603.91;4943577;28;20258;-77
2023/01/20 05:14:11;;;;;;;17.17;3.55;;;-2.40;99.90;;;-2.80;100.00;99602.66;4943860;28;20238;-77
2023/01/20 05:16:38;;;;;;;16.73;3.92;;;-2.50;99.90;;;-2.86;100.00;99599.75;4946053;28;20242;-76
2023/01/20 05:19:05;;;;;;;20.48;4.30;;;-2.60;99.90;;;-3.05;100.00;99591.94;4944288;28;20289;-76
2023/01/20 05:21:32;;;;;;;12.45;2.63;;;-2.70;99.90;;;-3.02;100.00;99589.47;4948495;28;20325;-77
2023/01/20 05:23:59;;;;;;;13.43;3.00;;;-2.80;99.90;;;-3.12;100.00;99593.31;4952276;28;20737;-77
2023/01/20 05:26:26;;;;;;;12.55;2.63;;;-2.80;99.90;;;-2.94;100.00;99598.50;4939687;28;20297;-76
2023/01/20 05:28:53;;;;;;;16.42;3.45;;;-2.80;99.90;;;-2.87;100.00;99610.94;4946703;28;20234;-76
2023/01/20 05:31:20;;;;;;;19.00;3.88;;;-2.60;99.90;;;-3.17;100.00;99599.97;4939062;28;20240;-76
2023/01/20 05:33:47;;;;;;;13.35;2.80;;;-2.80;99.90;;;-3.22;100.00;99607.50;4955245;28;20325;-77
2023/01/20 05:36:14;;;;;;;15.68;3.25;;;-3.00;99.90;;;-3.12;100.00;99605.38;4944279;28;20258;-75
2023/01/20 05:38:42;;;;;;;21.63;4.40;;;-2.60;99.90;;;-2.95;100.00;99623.50;4945331;28;20246;-75
2023/01/20 05:41:09;;;;;;;14.80;3.10;;;-2.80;99.90;;;-2.97;100.00;99634.56;4944936;28;20233;-76
2023/01/20 05:43:37;;;;;;;12.05;2.60;;;-2.80;99.90;;;-2.98;100.00;99632.78;4945844;28;20229;-75
2023/01/20 05:46:05;;;;;;;28.85;5.63;;;-2.70;99.90;;;-3.02;100.00;99642.09;4944348;28;20305;-77
2023/01/20 05:48:32;;;;;;;10.82;2.30;;;-2.80;99.90;;;-3.01;100.00;99643.00;4948558;28;20233;-75
2023/01/20 05:50:59;;;;;;;18.90;4.07;;;-2.80;99.90;;;-2.98;100.00;99649.19;4949160;28;20246;-76
2023/01/20 05:53:26;;;;;;;20.30;4.10;;;-2.60;99.90;;;-2.95;100.00;99653.63;4943226;28;20234;-76
2023/01/20 05:56:02;;;;;;;24.75;5.07;;;-2.70;99.90;;;-2.98;100.00;99656.97;4945471;28;20230;-76
2023/01/20 05:58:30;;;;;;;13.75;2.83;;;-2.70;99.90;;;-3.13;100.00;99660.47;4940098;28;20232;-79
2023/01/20 06:01:08;;;;;;;22.67;4.47;;;-2.90;99.90;;;-3.08;100.00;99661.59;4944495;28;20276;-76
2023/01/20 06:03:35;;;;;;;32.90;6.40;;;-2.90;99.90;;;-2.98;100.00;99667.31;4939960;28;20238;-78
2023/01/20 06:06:06;;;;;;;34.85;6.57;;;-2.80;99.90;;;-2.99;100.00;99675.00;4941882;28;20306;-77
2023/01/20 06:08:34;;;;;;;15.60;3.17;;;-2.80;99.90;;;-3.07;100.00;99669.44;4944002;28;20276;-76
2023/01/20 06:11:01;;;;;;;18.13;3.90;;;-2.80;99.90;;;-3.03;100.00;99675.66;4948257;28;20300;-76
2023/01/20 06:13:28;;;;;;;14.20;2.92;;;-2.80;99.90;;;-2.91;100.00;99687.50;4944484;28;20246;-75
2023/01/20 06:15:56;;;;;;;22.45;4.60;;;-2.70;99.90;;;-2.90;100.00;99686.69;4949608;28;20232;-78
2023/01/20 06:18:23;;;;;;;16.40;3.40;;;-2.70;99.90;;;-2.78;100.00;99693.28;4948849;28;20272;-76
2023/01/20 06:20:50;;;;;;;26.88;5.18;;;-2.60;99.90;;;-2.98;100.00;99695.75;4941839;28;20230;-75
2023/01/20 06:23:18;;;;;;;14.15;3.05;;;-2.70;99.90;;;-3.02;100.00;99688.66;4950050;28;20225;-75
2023/01/20 06:25:45;;;;;;;12.57;2.65;;;-2.50;99.90;;;-2.90;100.00;99689.28;4952903;28;20288;-76
2023/01/20 06:28:12;;;;;;;20.20;4.47;;;-2.70;99.90;;;-2.77;100.00;99700.22;4950931;28;20237;-75
2023/01/20 06:30:41;;;;;;;19.58;3.85;;;-2.60;99.90;;;-2.87;100.00;99690.25;4950520;28;20234;-77
2023/01/20 06:33:09;;;;;;;14.25;3.00;;;-2.60;99.90;;;-2.96;100.00;99688.06;4951970;28;20249;-76
2023/01/20 06:35:37;;;;;;;16.35;3.35;;;-2.70;99.90;;;-2.96;100.00;99685.50;4947749;28;20230;-75
2023/01/20 06:38:04;;;;;;;10.80;2.50;;;-2.70;99.90;;;-3.05;100.00;99692.78;4946550;28;20237;-75
2023/01/20 06:40:31;;;;;;;16.90;3.53;;;-2.80;99.90;;;-3.08;100.00;99687.47;4943894;28;20337;-76
2023/01/20 06:42:58;;;;;;;13.15;2.97;;;-2.80;99.90;;;-3.08;100.00;99688.34;4938017;28;20235;-77
2023/01/20 06:45:25;;;;;;;10.23;2.25;;;-2.90;99.90;;;-3.07;100.00;99694.41;4936910;28;20324;-76
2023/01/20 06:47:52;;;;;;;13.07;2.83;;;-2.90;99.90;;;-3.11;100.00;99693.38;4947745;28;20232;-76
2023/01/20 06:50:19;;;;;;;15.30;3.15;;;-2.80;99.90;;;-3.10;100.00;99697.72;4956359;28;20314;-76
2023/01/20 06:52:46;;;;;;;13.23;2.83;;;-2.90;99.90;;;-3.12;100.00;99701.94;4963460;28;20261;-76
2023/01/20 06:55:13;;;;;;;12.38;2.67;;;-2.90;99.90;;;-3.08;100.00;99703.88;4952832;28;20300;-76
2023/01/20 06:57:41;;;;;;;14.25;2.95;;;-2.60;99.90;;;-3.08;100.00;99695.22;4949464;28;20229;-76
2023/01/20 07:00:09;;;;;;;11.73;2.45;;;-2.90;99.90;;;-3.07;100.00;99697.00;4948742;28;20257;-76
2023/01/20 07:02:36;;;;;;;13.18;2.78;;;-2.90;99.90;;;-3.16;100.00;99694.81;4950972;28;20233;-76
2023/01/20 07:05:06;;;;;;;14.00;3.10;;;-2.90;99.90;;;-3.19;100.00;99698.97;4954486;28;20300;-77
2023/01/20 07:07:34;;;;;;;16.25;3.35;;;-2.90;99.90;;;-3.12;100.00;99698.47;4942704;28;20246;-75
2023/01/20 07:10:02;;;;;;;12.45;2.72;;;-2.90;99.90;;;-3.17;100.00;99702.50;4955758;28;20230;-75
2023/01/20 07:12:29;;;;;;;11.82;2.55;;;-2.90;99.90;;;-3.27;100.00;99703.72;4947609;28;20230;-76
2023/01/20 07:14:56;;;;;;;11.65;2.75;;;-3.00;99.90;;;-3.32;100.00;99698.31;4951609;28;20276;-76
2023/01/20 07:17:23;;;;;;;12.52;2.72;;;-3.00;99.90;;;-3.38;100.00;99697.13;4947612;28;20313;-76
2023/01/20 07:19:50;;;;;;;14.68;3.03;;;-2.60;99.90;;;-3.39;100.00;99710.84;4948515;28;20632;-76
2023/01/20 07:22:17;;;;;;;16.55;3.90;;;-2.20;99.90;;;-3.38;100.00;99712.63;4942672;28;20257;-78
2023/01/20 07:24:44;;;;;;;15.57;3.15;;;-3.10;99.90;;;-3.33;100.00;99724.09;4951029;28;20229;-78
2023/01/20 07:27:13;;;;;;;13.43;2.78;;;-3.10;99.90;;;-3.35;100.00;99723.13;4948511;28;20237;-75
2023/01/20 07:29:41;;;;;;;19.20;3.97;;;-3.10;99.90;;;-3.47;100.00;99719.91;4944013;28;20272;-76
2023/01/20 07:32:08;;;;;;;15.10;3.13;;;-3.20;99.90;;;-3.63;100.00;99719.09;4946191;28;20455;-75
2023/01/20 07:34:35;;;;;;;21.48;4.25;;;-3.40;99.90;;;-3.47;100.00;99732.81;4942945;28;20241;-77
2023/01/20 07:37:02;;;;;;;10.70;2.38;;;-3.30;99.90;;;-3.44;100.00;99741.63;4944118;28;20314;-77
2023/01/20 07:39:29;;;;;;;15.13;3.15;;;-3.20;99.90;;;-3.51;100.00;99746.38;4948432;28;20725;-77
2023/01/20 07:41:56;;;;;;;13.60;3.00;;;-3.30;99.90;;;-3.61;100.00;99739.84;4940453;28;20230;-75
2023/01/20 07:44:27;;;;;;;11.43;2.45;;;-3.40;99.90;;;-3.56;100.00;99749.63;4940734;28;20237;-75
2023/01/20 07:47:00;;;;;;;16.77;3.50;;;-3.30;99.90;;;-3.82;100.00;99743.84;4945955;28;20225;-75
2023/01/20 07:49:28;;;;;;;15.32;3.13;;;-3.50;99.90;;;-3.61;100.00;99753.66;4950355;28;20240;-76
2023/01/20 07:51:55;;;;;;;13.85;2.88;;;-3.40;99.90;;;-3.55;100.00;99760.84;4948311;28;20222;-76
2023/01/20 07:54:22;;;;;;;13.63;2.90;;;-3.40;99.90;;;-3.67;100.00;99766.25;4944002;28;20673;-75
2023/01/20 07:56:49;;;;;;;14.63;3.00;;;-3.40;99.90;;;-3.62;100.00;99767.38;4952397;28;20240;-76
2023/01/20 07:59:16;;;;;;;15.68;3.22;;;-2.80;99.90;;;-3.67;100.00;99774.00;4948639;28;20237;-77
2023/01/20 08:01:44;;;;;;;14.40;3.03;;;-3.40;99.90;;;-3.65;100.00;99779.25;4947805;28;20237;-76
2023/01/20 08:04:12;;;;;;;24.27;4.82;;;-3.40;99.90;;;-3.64;100.00;99783.59;4943557;28;20235;-76
2023/01/20 08:06:39;;;;;;;19.25;3.88;;;-3.40;99.90;;;-3.63;100.00;99795.72;4948642;28;20234;-77
2023/01/20 08:09:10;;;;;;;17.00;3.63;;;-3.40;99.90;;;-3.42;100.00;99808.91;4948484;28;20288;-76
2023/01/20 08:11:38;;;;;;;13.65;2.90;;;-3.30;99.90;;;-3.46;100.00;99812.13;4949910;28;20233;-76
2023/01/20 08:14:05;;;;;;;15.23;3.30;;;-3.20;99.90;;;-3.20;100.00;99837.69;4947869;28;20234;-76
2023/01/20 08:16:32;;;;;;;15.60;3.17;;;-3.10;99.90;;;-3.18;100.00;99845.53;4953656;28;20766;-76
2023/01/20 08:18:59;;;;;;;15.52;3.38;;;-3.00;99.90;;;-3.22;100.00;99849.66;4956641;28;20230;-75
2023/01/20 08:21:30;;;;;;;20.42;4.07;;;-3.00;99.90;;;-3.20;100.00;99848.03;4947349;28;20700;-75
2023/01/20 08:23:59;;;;;;;18.67;3.83;;;-2.90;99.90;;;-3.05;100.00;99848.88;4945085;28;20273;-76
2023/01/20 08:26:28;;;;;;;50.40;9.30;;;-2.90;99.90;;;-2.98;100.00;99865.59;4945731;28;20264;-77
2023/01/20 08:29:07;;;;;;;16.75;3.53;;;-2.80;99.90;;;-2.90;100.00;99867.78;4943760;28;20237;-76
2023/01/20 08:31:36;;;;;;;16.15;3.25;;;-2.70;99.90;;;-2.82;100.00;99880.22;4951482;28;20229;-76
2023/01/20 08:34:04;;;;;;;25.38;5.13;;;-2.60;99.90;;;-2.90;100.00;99870.38;4946200;28;20257;-75
2023/01/20 08:36:35;;;;;;;12.52;2.75;;;-2.60;99.90;;;-2.74;100.00;99876.34;4945891;28;20246;-78
2023/01/20 08:39:06;;;;;;;26.30;5.32;;;-2.50;99.90;;;-2.66;100.00;99891.47;4947741;28;20284;-75
2023/01/20 08:41:38;;;;;;;13.52;2.78;;;-2.40;99.90;;;-2.68;100.00;99880.16;4948475;28;20230;-75
2023/01/20 08:44:07;;;;;;;11.40;2.58;;;-2.40;99.90;;;-2.43;100.00;99891.81;4944015;28;20729;-76
2023/01/20 08:46:36;;;;;;;22.50;4.50;;;-2.30;99.90;;;-2.36;100.00;99902.56;4942975;28;20340;-76
2023/01/20 08:49:18;;;;;;;21.88;4.63;;;-2.10;99.90;;;-2.37;100.00;99905.97;4947426;28;20670;-76
2023/01/20 08:51:45;;;;;;;21.02;4.20;;;-2.10;99.90;;;-2.19;100.00;99920.66;4946984;28;20226;-76
2023/01/20 08:54:13;;;;;;;15.82;3.30;;;-2.00;99.90;;;-1.97;100.00;99941.66;4952678;28;20233;-78
2023/01/20 08:56:40;;;;;;;14.43;2.95;;;-1.60;99.90;;;-1.80;100.00;99945.09;4958082;28;20709;-75
2023/01/20 08:59:07;;;;;;;15.02;3.15;;;-1.70;99.90;;;-2.03;100.00;99937.06;4951143;28;20230;-76
2023/01/20 09:01:36;;;;;;;17.08;3.47;;;-1.70;99.90;;;-2.01;100.00;99930.25;4948647;28;20308;-76
2023/01/20 09:04:04;;;;;;;22.50;4.65;;;-1.80;99.90;;;-2.06;100.00;99928.25;4949378;28;20230;-77
2023/01/20 09:06:47;;;;;;;28.40;4.93;;;-1.80;99.90;;;-2.08;100.00;99930.75;4949045;28;20230;-75
2023/01/20 09:09:16;;;;;;;12.50;2.55;;;-1.80;99.90;;;-1.94;100.00;99936.63;4947997;28;20336;-75
2023/01/20 09:11:49;;;;;;;15.73;3.25;;;-1.70;99.90;;;-1.84;100.00;99949.25;4947746;28;20281;-76
2023/01/20 09:14:22;;;;;;;13.07;2.72;;;-1.60;99.90;;;-1.67;100.00;99955.25;4949340;28;20242;-75
2023/01/20 09:16:50;;;;;;;14.48;3.03;;;-1.50;99.90;;;-1.54;100.00;99975.78;4946757;28;20230;-77
2023/01/20 09:19:17;;;;;;;12.20;2.58;;;-0.60;99.90;;;-1.50;100.00;99979.44;4949969;28;20617;-77
2023/01/20 09:21:44;;;;;;;22.08;4.38;;;-1.30;99.90;;;-1.40;100.00;99994.63;4945251;28;20229;-76
2023/01/20 09:24:11;;;;;;;17.50;3.60;;;-1.20;99.90;;;-1.36;100.00;99992.25;4953646;28;20238;-75
2023/01/20 09:26:39;;;;;;;9.45;2.05;;;-1.20;99.90;;;-1.26;100.00;100009.19;4952904;28;20297;-76
2023/01/20 09:29:18;;;;;;;15.70;3.42;;;-1.10;99.90;;;-1.10;100.00;100019.50;4957186;28;20265;-76
2023/01/20 09:31:58;;;;;;;15.60;3.17;;;-1.00;99.90;;;-1.03;100.00;100026.75;4954255;28;20225;-76
2023/01/20 09:34:28;;;;;;;21.50;4.32;;;-0.80;99.90;;;-0.79;100.00;100044.34;4948681;28;20248;-77
2023/01/20 09:47:18;;;;;;;15.68;3.28;;;-0.30;99.90;;;-0.24;100.00;100078.97;4950633;28;20253;-75
2023/01/20 09:55:55;;;;;;;11.57;2.45;;;0.00;99.90;;;0.06;100.00;100112.41;4946138;28;20296;-76
2023/01/20 09:58:46;;;;;;;8.93;1.98;;;0.10;99.90;;;0.26;100.00;100127.19;4953525;28;20289;-75
2023/01/20 10:01:45;;;;;;;10.60;2.33;;;0.40;99.90;;;0.52;100.00;100150.06;4963477;28;20242;-76
2023/01/20 10:04:31;;;;;;;10.23;2.30;;;0.60;99.90;;;0.58;100.00;100163.34;4934547;29;20244;-75
2023/01/20 10:07:30;;;;;;;12.98;2.85;;;0.70;99.90;;;1.13;100.00;100207.38;4943222;28;20234;-75
2023/01/20 10:10:12;;;;;;;13.38;3.08;;;1.00;99.90;;;1.35;100.00;100227.44;4964451;28;20581;-75
2023/01/20 10:12:51;;;;;;;9.98;2.25;;;1.40;99.90;;;1.49;100.00;100249.75;4950284;28;20237;-76
2023/01/20 10:15:29;;;;;;;16.35;3.50;;;1.50;99.90;;;1.62;100.00;100271.13;4928753;29;20280;-76
2023/01/20 10:18:08;;;;;;;11.10;2.45;;;1.70;99.90;;;1.58;100.00;100276.22;4952135;28;20225;-76
2023/01/20 10:20:48;;;;;;;12.63;2.78;;;1.70;99.90;;;1.66;100.00;100288.69;4951992;29;20257;-75
2023/01/20 10:23:41;;;;;;;9.30;2.05;;;1.70;99.90;;;1.62;100.00;100300.69;4952896;28;20233;-75
2023/01/20 10:26:20;;;;;;;11.40;2.60;;;1.80;99.90;;;1.64;100.00;100309.47;4952960;28;20640;-75
2023/01/20 10:29:05;;;;;;;9.77;2.20;;;2.00;99.90;;;1.63;100.00;100310.28;4952283;28;20268;-79
2023/01/20 10:31:45;;;;;;;10.38;2.25;;;1.80;99.90;;;1.66;100.00;100317.34;4947417;28;20229;-76
2023/01/20 10:34:19;;;;;;;9.88;2.22;;;2.00;99.90;;;1.54;100.00;100309.91;4946666;28;20293;-75
2023/01/20 10:37:08;;;;;;;15.93;3.40;;;1.80;99.90;;;1.63;100.00;100305.06;4941421;28;20239;-76
2023/01/20 10:40:06;;;;;;;8.48;1.90;;;1.80;99.90;;;1.73;100.00;100308.97;4933699;29;20233;-76
2023/01/20 10:42:33;;;;;;;8.13;1.85;;;1.80;99.90;;;1.75;100.00;100321.22;4948834;29;20257;-75
2023/01/20 10:45:00;;;;;;;16.48;3.53;;;2.00;99.90;;;1.77;100.00;100308.25;4954166;28;20761;-76